sensor_id;sensor_type;location;lat;lon;timestamp;pressure;altitude;pressure_sealevel;temperature;humidity
61136;BME280;47021;51.340;12.432;2022-07-03T00:00:41;100490.50;;;21.94;49.22
61136;BME280;47021;51.340;12.432;2022-07-03T00:03:08;100499.28;;;21.94;49.47
61136;BME280;47021;51.340;12.432;2022-07-03T00:05:34;100501.34;;;21.77;50.45
61136;BME280;47021;51.340;12.432;2022-07-03T00:08:00;100492.47;;;21.85;49.93
61136;BME280;47021;51.340;12.432;2022-07-03T00:10:25;100498.78;;;21.63;49.99
61136;BME280;47021;51.340;12.432;2022-07-03T00:12:52;100496.19;;;21.69;50.52
61136;BME280;47021;51.340;12.432;2022-07-03T00:15:18;100500.91;;;21.53;50.58
61136;BME280;47021;51.340;12.432;2022-07-03T00:17:45;100501.84;;;21.45;50.75
61136;BME280;47021;51.340;12.432;2022-07-03T00:20:34;100496.53;;;21.45;50.68
61136;BME280;47021;51.340;12.432;2022-07-03T00:23:04;100489.53;;;21.38;50.84
61136;BME280;47021;51.340;12.432;2022-07-03T00:25:43;100489.88;;;21.35;50.22
61136;BME280;47021;51.340;12.432;2022-07-03T00:28:24;100496.72;;;21.44;50.46
61136;BME280;47021;51.340;12.432;2022-07-03T00:30:54;100493.25;;;21.43;50.56
61136;BME280;47021;51.340;12.432;2022-07-03T00:33:26;100487.16;;;21.28;50.99
61136;BME280;47021;51.340;12.432;2022-07-03T00:35:55;100483.41;;;21.23;51.19
61136;BME280;47021;51.340;12.432;2022-07-03T00:38:21;100490.44;;;21.30;51.09
61136;BME280;47021;51.340;12.432;2022-07-03T00:40:48;100481.78;;;21.22;51.06
61136;BME280;47021;51.340;12.432;2022-07-03T00:43:21;100480.44;;;21.32;50.89
61136;BME280;47021;51.340;12.432;2022-07-03T00:45:49;100471.31;;;21.20;50.60
61136;BME280;47021;51.340;12.432;2022-07-03T00:48:17;100477.75;;;21.11;51.61
61136;BME280;47021;51.340;12.432;2022-07-03T00:50:56;100467.84;;;20.90;52.02
61136;BME280;47021;51.340;12.432;2022-07-03T00:53:33;100481.09;;;20.69;52.21
61136;BME280;47021;51.340;12.432;2022-07-03T00:56:03;100472.19;;;20.91;51.76
61136;BME280;47021;51.340;12.432;2022-07-03T00:58:35;100472.19;;;20.91;51.47
61136;BME280;47021;51.340;12.432;2022-07-03T01:01:10;100470.44;;;21.13;51.13
61136;BME280;47021;51.340;12.432;2022-07-03T01:03:39;100474.09;;;20.97;51.19
61136;BME280;47021;51.340;12.432;2022-07-03T01:06:16;100467.69;;;20.77;52.20
61136;BME280;47021;51.340;12.432;2022-07-03T01:08:51;100468.34;;;20.79;52.15
61136;BME280;47021;51.340;12.432;2022-07-03T01:11:27;100468.34;;;20.79;51.51
61136;BME280;47021;51.340;12.432;2022-07-03T01:17:06;100461.19;;;20.80;51.43
61136;BME280;47021;51.340;12.432;2022-07-03T01:28:14;100454.97;;;20.87;52.02
61136;BME280;47021;51.340;12.432;2022-07-03T01:30:52;100453.88;;;20.82;51.49
61136;BME280;47021;51.340;12.432;2022-07-03T01:33:23;100451.69;;;20.56;52.39
61136;BME280;47021;51.340;12.432;2022-07-03T01:38:30;100450.59;;;20.65;52.54
61136;BME280;47021;51.340;12.432;2022-07-03T01:40:57;100449.44;;;20.53;52.74
61136;BME280;47021;51.340;12.432;2022-07-03T01:43:27;100446.94;;;20.52;52.40
61136;BME280;47021;51.340;12.432;2022-07-03T01:45:56;100437.69;;;20.48;52.50
61136;BME280;47021;51.340;12.432;2022-07-03T01:48:21;100433.59;;;20.60;52.67
61136;BME280;47021;51.340;12.432;2022-07-03T01:50:49;100429.31;;;20.44;52.62
61136;BME280;47021;51.340;12.432;2022-07-03T01:53:16;100432.88;;;20.51;52.78
61136;BME280;47021;51.340;12.432;2022-07-03T01:55:42;100431.31;;;20.42;52.66
61136;BME280;47021;51.340;12.432;2022-07-03T01:58:08;100427.91;;;20.48;52.48
61136;BME280;47021;51.340;12.432;2022-07-03T02:03:48;100419.41;;;20.53;52.10
61136;BME280;47021;51.340;12.432;2022-07-03T02:06:46;100422.50;;;20.71;52.07
61136;BME280;47021;51.340;12.432;2022-07-03T02:09:18;100423.69;;;20.54;52.30
61136;BME280;47021;51.340;12.432;2022-07-03T02:11:51;100415.44;;;20.63;52.25
61136;BME280;47021;51.340;12.432;2022-07-03T02:14:19;100422.50;;;20.56;52.22
61136;BME280;47021;51.340;12.432;2022-07-03T02:16:58;100423.97;;;20.73;51.97
61136;BME280;47021;51.340;12.432;2022-07-03T02:19:52;100422.53;;;20.42;52.80
61136;BME280;47021;51.340;12.432;2022-07-03T02:22:34;100420.34;;;20.30;53.35
61136;BME280;47021;51.340;12.432;2022-07-03T02:25:13;100418.94;;;20.49;52.35
61136;BME280;47021;51.340;12.432;2022-07-03T02:27:51;100418.75;;;20.36;53.03
61136;BME280;47021;51.340;12.432;2022-07-03T02:30:22;100418.91;;;20.05;53.73
61136;BME280;47021;51.340;12.432;2022-07-03T02:32:50;100418.88;;;20.28;52.78
61136;BME280;47021;51.340;12.432;2022-07-03T02:35:26;100423.69;;;20.24;53.41
61136;BME280;47021;51.340;12.432;2022-07-03T02:38:04;100422.34;;;19.91;54.14
61136;BME280;47021;51.340;12.432;2022-07-03T02:41:14;100414.56;;;20.27;53.44
61136;BME280;47021;51.340;12.432;2022-07-03T02:43:48;100424.03;;;20.07;53.86
61136;BME280;47021;51.340;12.432;2022-07-03T02:51:48;100424.19;;;19.91;54.04
61136;BME280;47021;51.340;12.432;2022-07-03T02:54:17;100421.19;;;19.94;53.89
61136;BME280;47021;51.340;12.432;2022-07-03T03:02:19;100421.97;;;19.94;54.01
61136;BME280;47021;51.340;12.432;2022-07-03T03:05:12;100426.00;;;19.90;54.07
61136;BME280;47021;51.340;12.432;2022-07-03T03:08:12;100420.78;;;19.82;54.76
61136;BME280;47021;51.340;12.432;2022-07-03T03:10:47;100424.72;;;19.86;54.71
61136;BME280;47021;51.340;12.432;2022-07-03T03:13:16;100420.44;;;20.00;53.70
61136;BME280;47021;51.340;12.432;2022-07-03T03:18:27;100416.47;;;19.81;54.76
61136;BME280;47021;51.340;12.432;2022-07-03T03:20:59;100421.69;;;19.75;54.54
61136;BME280;47021;51.340;12.432;2022-07-03T03:23:46;100428.34;;;19.48;55.36
61136;BME280;47021;51.340;12.432;2022-07-03T03:26:12;100418.53;;;19.56;54.83
61136;BME280;47021;51.340;12.432;2022-07-03T03:28:39;100417.06;;;19.91;54.40
61136;BME280;47021;51.340;12.432;2022-07-03T03:31:05;100409.31;;;19.67;55.31
61136;BME280;47021;51.340;12.432;2022-07-03T03:33:32;100409.09;;;19.91;54.46
61136;BME280;47021;51.340;12.432;2022-07-03T03:35:59;100404.19;;;20.03;53.97
61136;BME280;47021;51.340;12.432;2022-07-03T03:38:26;100405.88;;;19.81;54.42
61136;BME280;47021;51.340;12.432;2022-07-03T03:40:51;100397.31;;;19.94;54.18
61136;BME280;47021;51.340;12.432;2022-07-03T03:43:18;100408.19;;;19.84;55.01
61136;BME280;47021;51.340;12.432;2022-07-03T03:45:43;100405.91;;;19.58;55.63
61136;BME280;47021;51.340;12.432;2022-07-03T03:48:10;100407.25;;;19.92;54.56
61136;BME280;47021;51.340;12.432;2022-07-03T03:50:36;100403.56;;;20.01;54.44
61136;BME280;47021;51.340;12.432;2022-07-03T03:53:10;100403.16;;;19.89;54.96
61136;BME280;47021;51.340;12.432;2022-07-03T03:55:36;100399.31;;;19.92;54.44
61136;BME280;47021;51.340;12.432;2022-07-03T03:58:02;100405.97;;;20.25;53.55
61136;BME280;47021;51.340;12.432;2022-07-03T04:00:27;100407.97;;;20.23;53.87
61136;BME280;47021;51.340;12.432;2022-07-03T04:02:55;100409.47;;;20.17;53.90
61136;BME280;47021;51.340;12.432;2022-07-03T04:05:26;100411.69;;;20.14;54.18
61136;BME280;47021;51.340;12.432;2022-07-03T04:07:53;100401.78;;;20.30;53.81
61136;BME280;47021;51.340;12.432;2022-07-03T04:10:22;100409.06;;;20.43;53.42
61136;BME280;47021;51.340;12.432;2022-07-03T04:12:48;100407.06;;;20.45;53.32
61136;BME280;47021;51.340;12.432;2022-07-03T04:15:16;100401.09;;;20.43;53.14
61136;BME280;47021;51.340;12.432;2022-07-03T04:17:41;100396.19;;;20.25;54.22
61136;BME280;47021;51.340;12.432;2022-07-03T04:20:13;100400.16;;;20.07;54.67
61136;BME280;47021;51.340;12.432;2022-07-03T04:22:39;100402.16;;;20.19;54.65
61136;BME280;47021;51.340;12.432;2022-07-03T04:25:05;100401.94;;;20.29;54.31
61136;BME280;47021;51.340;12.432;2022-07-03T04:27:32;100397.16;;;20.54;53.29
61136;BME280;47021;51.340;12.432;2022-07-03T04:30:00;100396.28;;;20.47;53.87
61136;BME280;47021;51.340;12.432;2022-07-03T04:32:25;100401.03;;;20.51;54.02
61136;BME280;47021;51.340;12.432;2022-07-03T04:34:52;100399.38;;;20.50;54.94
61136;BME280;47021;51.340;12.432;2022-07-03T04:37:18;100397.53;;;20.51;54.45
61136;BME280;47021;51.340;12.432;2022-07-03T04:39:44;100398.47;;;20.43;54.77
61136;BME280;47021;51.340;12.432;2022-07-03T04:42:09;100398.75;;;20.84;54.01
61136;BME280;47021;51.340;12.432;2022-07-03T04:44:36;100397.00;;;21.05;52.90
61136;BME280;47021;51.340;12.432;2022-07-03T04:47:03;100391.41;;;21.00;52.90
61136;BME280;47021;51.340;12.432;2022-07-03T04:49:31;100397.28;;;21.11;53.12
61136;BME280;47021;51.340;12.432;2022-07-03T04:51:56;100398.06;;;21.11;52.88
61136;BME280;47021;51.340;12.432;2022-07-03T04:54:27;100400.50;;;20.91;53.19
61136;BME280;47021;51.340;12.432;2022-07-03T04:56:53;100394.94;;;21.22;52.81
61136;BME280;47021;51.340;12.432;2022-07-03T04:59:18;100394.47;;;21.19;53.03
61136;BME280;47021;51.340;12.432;2022-07-03T05:01:43;100389.63;;;21.22;53.13
61136;BME280;47021;51.340;12.432;2022-07-03T05:04:08;100378.44;;;21.27;53.44
61136;BME280;47021;51.340;12.432;2022-07-03T05:06:34;100387.66;;;21.31;53.52
61136;BME280;47021;51.340;12.432;2022-07-03T05:08:59;100387.53;;;21.39;52.60
61136;BME280;47021;51.340;12.432;2022-07-03T05:11:24;100376.88;;;21.39;52.68
61136;BME280;47021;51.340;12.432;2022-07-03T05:14:03;100375.63;;;21.14;53.27
61136;BME280;47021;51.340;12.432;2022-07-03T05:16:29;100371.63;;;21.45;52.44
61136;BME280;47021;51.340;12.432;2022-07-03T05:18:54;100378.28;;;21.14;53.73
61136;BME280;47021;51.340;12.432;2022-07-03T05:21:21;100382.34;;;21.52;52.53
61136;BME280;47021;51.340;12.432;2022-07-03T05:23:53;100381.09;;;21.27;53.47
61136;BME280;47021;51.340;12.432;2022-07-03T05:26:18;100386.19;;;21.49;53.17
61136;BME280;47021;51.340;12.432;2022-07-03T05:28:47;100375.59;;;21.77;51.90
61136;BME280;47021;51.340;12.432;2022-07-03T05:31:13;100378.88;;;21.79;52.00
61136;BME280;47021;51.340;12.432;2022-07-03T05:36:28;100381.19;;;22.16;51.40
61136;BME280;47021;51.340;12.432;2022-07-03T05:39:05;100378.63;;;22.29;51.09
61136;BME280;47021;51.340;12.432;2022-07-03T05:41:32;100381.19;;;22.16;52.03
61136;BME280;47021;51.340;12.432;2022-07-03T05:43:58;100378.19;;;22.26;51.71
61136;BME280;47021;51.340;12.432;2022-07-03T05:46:23;100371.94;;;22.46;50.79
61136;BME280;47021;51.340;12.432;2022-07-03T05:48:51;100383.94;;;22.64;49.87
61136;BME280;47021;51.340;12.432;2022-07-03T05:51:16;100376.56;;;22.66;49.87
61136;BME280;47021;51.340;12.432;2022-07-03T05:53:49;100380.97;;;22.45;50.94
61136;BME280;47021;51.340;12.432;2022-07-03T05:56:14;100384.56;;;22.66;50.78
61136;BME280;47021;51.340;12.432;2022-07-03T05:58:59;100380.34;;;22.97;49.04
61136;BME280;47021;51.340;12.432;2022-07-03T06:01:24;100383.03;;;23.10;49.02
61136;BME280;47021;51.340;12.432;2022-07-03T06:04:03;100384.25;;;23.08;49.75
61136;BME280;47021;51.340;12.432;2022-07-03T06:06:29;100373.88;;;23.26;49.04
61136;BME280;47021;51.340;12.432;2022-07-03T06:08:54;100374.50;;;23.41;48.64
61136;BME280;47021;51.340;12.432;2022-07-03T06:11:19;100370.41;;;23.45;48.77
61136;BME280;47021;51.340;12.432;2022-07-03T06:13:44;100356.84;;;23.79;48.28
61136;BME280;47021;51.340;12.432;2022-07-03T06:16:10;100359.94;;;23.70;48.59
61136;BME280;47021;51.340;12.432;2022-07-03T06:18:50;100355.63;;;24.08;47.72
61136;BME280;47021;51.340;12.432;2022-07-03T06:21:16;100362.09;;;24.32;47.00
61136;BME280;47021;51.340;12.432;2022-07-03T06:23:44;100357.16;;;24.42;46.92
61136;BME280;47021;51.340;12.432;2022-07-03T06:26:09;100354.50;;;24.35;46.77
61136;BME280;47021;51.340;12.432;2022-07-03T06:28:34;100356.78;;;24.38;46.43
61136;BME280;47021;51.340;12.432;2022-07-03T06:30:59;100359.50;;;24.70;45.98
61136;BME280;47021;51.340;12.432;2022-07-03T06:33:26;100353.56;;;24.68;45.42
61136;BME280;47021;51.340;12.432;2022-07-03T06:35:52;100353.44;;;24.94;44.73
61136;BME280;47021;51.340;12.432;2022-07-03T06:38:23;100345.53;;;25.12;44.12
61136;BME280;47021;51.340;12.432;2022-07-03T06:40:50;100340.28;;;25.23;43.00
61136;BME280;47021;51.340;12.432;2022-07-03T06:43:15;100342.88;;;25.05;43.09
61136;BME280;47021;51.340;12.432;2022-07-03T06:45:40;100334.34;;;24.90;44.05
61136;BME280;47021;51.340;12.432;2022-07-03T06:48:07;100334.91;;;25.30;42.74
61136;BME280;47021;51.340;12.432;2022-07-03T06:50:38;100339.19;;;25.62;42.14
61136;BME280;47021;51.340;12.432;2022-07-03T06:53:06;100338.44;;;25.55;41.99
61136;BME280;47021;51.340;12.432;2022-07-03T06:55:33;100341.03;;;25.62;42.27
61136;BME280;47021;51.340;12.432;2022-07-03T06:57:59;100332.75;;;25.88;41.86
61136;BME280;47021;51.340;12.432;2022-07-03T07:00:24;100333.28;;;25.78;41.86
61136;BME280;47021;51.340;12.432;2022-07-03T07:02:58;100330.66;;;25.72;42.64
61136;BME280;47021;51.340;12.432;2022-07-03T07:05:24;100335.59;;;25.93;42.11
61136;BME280;47021;51.340;12.432;2022-07-03T07:07:49;100338.81;;;26.20;41.37
61136;BME280;47021;51.340;12.432;2022-07-03T07:10:16;100326.03;;;26.40;41.33
61136;BME280;47021;51.340;12.432;2022-07-03T07:12:48;100329.81;;;26.32;41.41
61136;BME280;47021;51.340;12.432;2022-07-03T07:15:19;100323.84;;;26.48;41.21
61136;BME280;47021;51.340;12.432;2022-07-03T07:17:45;100328.81;;;26.63;41.02
61136;BME280;47021;51.340;12.432;2022-07-03T07:20:10;100328.22;;;26.79;40.87
61136;BME280;47021;51.340;12.432;2022-07-03T07:22:37;100324.00;;;27.13;40.13
61136;BME280;47021;51.340;12.432;2022-07-03T07:25:02;100327.69;;;27.00;39.96
61136;BME280;47021;51.340;12.432;2022-07-03T07:27:34;100316.28;;;27.16;39.77
61136;BME280;47021;51.340;12.432;2022-07-03T07:30:12;100312.94;;;27.21;40.06
61136;BME280;47021;51.340;12.432;2022-07-03T07:32:37;100320.16;;;27.32;39.95
61136;BME280;47021;51.340;12.432;2022-07-03T07:35:03;100314.25;;;27.42;39.54
61136;BME280;47021;51.340;12.432;2022-07-03T07:37:28;100324.78;;;27.78;39.22
61136;BME280;47021;51.340;12.432;2022-07-03T07:39:59;100312.63;;;27.98;38.10
61136;BME280;47021;51.340;12.432;2022-07-03T07:42:25;100322.03;;;27.20;40.29
61136;BME280;47021;51.340;12.432;2022-07-03T07:44:50;100314.97;;;27.49;39.41
61136;BME280;47021;51.340;12.432;2022-07-03T07:47:15;100325.97;;;27.82;39.08
61136;BME280;47021;51.340;12.432;2022-07-03T07:49:45;100323.97;;;27.43;39.83
61136;BME280;47021;51.340;12.432;2022-07-03T07:52:13;100325.38;;;27.91;39.30
61136;BME280;47021;51.340;12.432;2022-07-03T07:54:39;100306.22;;;28.11;38.80
61136;BME280;47021;51.340;12.432;2022-07-03T07:57:04;100314.25;;;28.11;38.87
61136;BME280;47021;51.340;12.432;2022-07-03T07:59:42;100312.25;;;28.30;38.67
61136;BME280;47021;51.340;12.432;2022-07-03T08:02:07;100312.81;;;28.32;38.17
61136;BME280;47021;51.340;12.432;2022-07-03T08:04:33;100312.72;;;28.27;38.98
61136;BME280;47021;51.340;12.432;2022-07-03T08:06:59;100304.28;;;28.35;38.71
61136;BME280;47021;51.340;12.432;2022-07-03T08:09:26;100305.38;;;28.11;38.17
61136;BME280;47021;51.340;12.432;2022-07-03T08:12:06;100303.72;;;28.61;37.76
61136;BME280;47021;51.340;12.432;2022-07-03T08:14:37;100298.72;;;28.81;37.61
61136;BME280;47021;51.340;12.432;2022-07-03T08:17:15;100288.47;;;28.78;38.16
61136;BME280;47021;51.340;12.432;2022-07-03T08:19:40;100292.44;;;29.37;36.82
61136;BME280;47021;51.340;12.432;2022-07-03T08:22:05;100289.13;;;28.85;37.54
61136;BME280;47021;51.340;12.432;2022-07-03T08:24:37;100290.25;;;29.17;37.08
61136;BME280;47021;51.340;12.432;2022-07-03T08:27:14;100284.44;;;29.59;36.50
61136;BME280;47021;51.340;12.432;2022-07-03T08:29:40;100280.22;;;29.29;37.13
61136;BME280;47021;51.340;12.432;2022-07-03T08:32:05;100282.88;;;29.63;36.87
61136;BME280;47021;51.340;12.432;2022-07-03T08:34:30;100286.25;;;29.37;36.63
61136;BME280;47021;51.340;12.432;2022-07-03T08:36:57;100285.47;;;29.91;35.76
61136;BME280;47021;51.340;12.432;2022-07-03T08:39:37;100268.38;;;29.47;36.18
61136;BME280;47021;51.340;12.432;2022-07-03T08:42:04;100269.53;;;29.34;36.16
61136;BME280;47021;51.340;12.432;2022-07-03T08:44:30;100263.56;;;29.32;36.33
61136;BME280;47021;51.340;12.432;2022-07-03T08:46:59;100267.50;;;30.23;35.03
61136;BME280;47021;51.340;12.432;2022-07-03T08:49:25;100274.31;;;30.04;35.18
61136;BME280;47021;51.340;12.432;2022-07-03T08:51:52;100268.84;;;30.42;34.58
61136;BME280;47021;51.340;12.432;2022-07-03T08:54:18;100271.03;;;30.24;34.88
61136;BME280;47021;51.340;12.432;2022-07-03T08:56:47;100254.63;;;30.74;34.08
61136;BME280;47021;51.340;12.432;2022-07-03T08:59:19;100267.84;;;30.27;33.69
61136;BME280;47021;51.340;12.432;2022-07-03T09:01:55;100262.72;;;30.25;34.65
61136;BME280;47021;51.340;12.432;2022-07-03T09:04:23;100261.41;;;30.06;34.54
61136;BME280;47021;51.340;12.432;2022-07-03T09:06:53;100260.19;;;30.40;34.17
61136;BME280;47021;51.340;12.432;2022-07-03T09:09:32;100253.34;;;31.13;32.96
61136;BME280;47021;51.340;12.432;2022-07-03T09:11:58;100255.03;;;31.19;32.66
61136;BME280;47021;51.340;12.432;2022-07-03T09:14:25;100260.88;;;29.87;34.67
61136;BME280;47021;51.340;12.432;2022-07-03T09:16:51;100269.09;;;30.41;33.64
61136;BME280;47021;51.340;12.432;2022-07-03T09:19:40;100249.19;;;31.37;31.78
61136;BME280;47021;51.340;12.432;2022-07-03T09:22:26;100248.22;;;31.11;31.35
61136;BME280;47021;51.340;12.432;2022-07-03T09:25:06;100251.38;;;30.77;31.86
61136;BME280;47021;51.340;12.432;2022-07-03T09:27:59;100252.22;;;31.09;30.63
61136;BME280;47021;51.340;12.432;2022-07-03T09:30:25;100238.28;;;31.59;30.77
61136;BME280;47021;51.340;12.432;2022-07-03T09:32:54;100247.47;;;31.58;30.97
61136;BME280;47021;51.340;12.432;2022-07-03T09:35:23;100240.97;;;31.22;31.68
61136;BME280;47021;51.340;12.432;2022-07-03T09:37:56;100251.16;;;30.83;31.64
61136;BME280;47021;51.340;12.432;2022-07-03T09:40:25;100236.78;;;30.99;31.33
61136;BME280;47021;51.340;12.432;2022-07-03T09:43:08;100237.59;;;31.00;30.25
61136;BME280;47021;51.340;12.432;2022-07-03T09:45:54;100245.47;;;31.43;30.02
61136;BME280;47021;51.340;12.432;2022-07-03T09:48:34;100239.28;;;31.94;29.31
61136;BME280;47021;51.340;12.432;2022-07-03T09:51:17;100226.38;;;32.07;29.50
61136;BME280;47021;51.340;12.432;2022-07-03T09:53:48;100224.97;;;31.47;29.66
61136;BME280;47021;51.340;12.432;2022-07-03T09:56:14;100219.69;;;31.62;29.75
61136;BME280;47021;51.340;12.432;2022-07-03T09:58:40;100216.09;;;31.47;30.05
61136;BME280;47021;51.340;12.432;2022-07-03T10:01:18;100223.66;;;31.13;30.28
61136;BME280;47021;51.340;12.432;2022-07-03T10:03:47;100215.66;;;31.28;30.03
61136;BME280;47021;51.340;12.432;2022-07-03T10:06:14;100208.53;;;31.49;30.29
61136;BME280;47021;51.340;12.432;2022-07-03T10:08:46;100227.56;;;31.74;28.68
61136;BME280;47021;51.340;12.432;2022-07-03T10:11:24;100219.84;;;31.97;28.33
61136;BME280;47021;51.340;12.432;2022-07-03T10:13:50;100213.53;;;32.69;28.11
61136;BME280;47021;51.340;12.432;2022-07-03T10:16:16;100213.81;;;32.98;27.21
61136;BME280;47021;51.340;12.432;2022-07-03T10:18:44;100209.47;;;32.77;27.69
61136;BME280;47021;51.340;12.432;2022-07-03T10:21:17;100208.56;;;32.16;29.34
61136;BME280;47021;51.340;12.432;2022-07-03T10:23:44;100211.34;;;33.36;28.28
61136;BME280;47021;51.340;12.432;2022-07-03T10:26:10;100216.22;;;32.69;28.47
61136;BME280;47021;51.340;12.432;2022-07-03T10:28:37;100212.94;;;33.42;27.94
61136;BME280;47021;51.340;12.432;2022-07-03T10:31:09;100208.41;;;33.23;28.40
61136;BME280;47021;51.340;12.432;2022-07-03T10:33:35;100219.78;;;32.80;29.35
61136;BME280;47021;51.340;12.432;2022-07-03T10:36:07;100206.97;;;33.46;28.21
61136;BME280;47021;51.340;12.432;2022-07-03T10:38:40;100205.34;;;33.50;27.90
61136;BME280;47021;51.340;12.432;2022-07-03T10:41:36;100204.16;;;34.40;26.24
61136;BME280;47021;51.340;12.432;2022-07-03T10:44:13;100202.91;;;34.95;25.70
61136;BME280;47021;51.340;12.432;2022-07-03T10:46:38;100207.31;;;35.19;25.39
61136;BME280;47021;51.340;12.432;2022-07-03T10:49:09;100207.94;;;34.39;25.83
61136;BME280;47021;51.340;12.432;2022-07-03T10:51:57;100194.03;;;35.18;24.77
61136;BME280;47021;51.340;12.432;2022-07-03T10:54:30;100195.19;;;33.85;25.63
61136;BME280;47021;51.340;12.432;2022-07-03T10:57:08;100201.13;;;34.46;24.73
61136;BME280;47021;51.340;12.432;2022-07-03T11:07:32;100184.19;;;33.52;25.63
61136;BME280;47021;51.340;12.432;2022-07-03T11:15:29;100170.22;;;33.98;25.02
61136;BME280;47021;51.340;12.432;2022-07-03T11:21:25;100156.75;;;35.47;24.61
61136;BME280;47021;51.340;12.432;2022-07-03T11:24:11;100136.94;;;35.89;23.94
61136;BME280;47021;51.340;12.432;2022-07-03T11:26:40;100148.09;;;35.87;23.17
61136;BME280;47021;51.340;12.432;2022-07-03T11:29:27;100140.38;;;35.94;23.72
61136;BME280;47021;51.340;12.432;2022-07-03T11:31:52;100145.38;;;35.87;23.08
61136;BME280;47021;51.340;12.432;2022-07-03T11:34:21;100138.78;;;35.51;24.38
61136;BME280;47021;51.340;12.432;2022-07-03T11:36:53;100148.94;;;35.64;23.46
61136;BME280;47021;51.340;12.432;2022-07-03T11:39:19;100133.19;;;35.66;23.18
61136;BME280;47021;51.340;12.432;2022-07-03T11:41:56;100140.38;;;35.05;23.65
61136;BME280;47021;51.340;12.432;2022-07-03T11:44:24;100136.75;;;35.38;23.07
61136;BME280;47021;51.340;12.432;2022-07-03T11:46:51;100134.81;;;35.20;23.63
61136;BME280;47021;51.340;12.432;2022-07-03T11:49:19;100144.47;;;34.40;24.58
61136;BME280;47021;51.340;12.432;2022-07-03T11:52:03;100135.47;;;35.30;24.28
61136;BME280;47021;51.340;12.432;2022-07-03T11:57:32;100131.78;;;35.21;23.17
61136;BME280;47021;51.340;12.432;2022-07-03T12:00:05;100130.66;;;35.46;22.92
61136;BME280;47021;51.340;12.432;2022-07-03T12:02:53;100133.94;;;34.96;24.04
61136;BME280;47021;51.340;12.432;2022-07-03T12:05:18;100128.47;;;35.01;23.44
61136;BME280;47021;51.340;12.432;2022-07-03T12:08:02;100125.19;;;35.93;22.00
61136;BME280;47021;51.340;12.432;2022-07-03T12:10:38;100126.22;;;36.35;22.52
61136;BME280;47021;51.340;12.432;2022-07-03T12:13:04;100121.97;;;35.25;22.50
61136;BME280;47021;51.340;12.432;2022-07-03T12:15:30;100126.41;;;35.40;21.81
61136;BME280;47021;51.340;12.432;2022-07-03T12:18:03;100139.50;;;34.52;23.35
61136;BME280;47021;51.340;12.432;2022-07-03T12:20:37;100113.75;;;35.30;22.76
61136;BME280;47021;51.340;12.432;2022-07-03T12:23:09;100115.75;;;35.67;22.58
61136;BME280;47021;51.340;12.432;2022-07-03T12:25:39;100118.34;;;34.54;24.07
61136;BME280;47021;51.340;12.432;2022-07-03T12:28:10;100117.78;;;35.09;23.05
61136;BME280;47021;51.340;12.432;2022-07-03T12:30:40;100123.53;;;34.12;24.83
61136;BME280;47021;51.340;12.432;2022-07-03T12:33:09;100115.41;;;34.06;24.47
61136;BME280;47021;51.340;12.432;2022-07-03T12:35:35;100102.53;;;34.90;23.93
61136;BME280;47021;51.340;12.432;2022-07-03T12:38:09;100103.41;;;35.32;24.08
61136;BME280;47021;51.340;12.432;2022-07-03T12:40:42;100104.97;;;35.15;23.11
61136;BME280;47021;51.340;12.432;2022-07-03T12:43:09;100104.31;;;34.70;23.51
61136;BME280;47021;51.340;12.432;2022-07-03T12:45:35;100097.09;;;34.27;23.06
61136;BME280;47021;51.340;12.432;2022-07-03T12:48:02;100090.63;;;35.33;21.84
61136;BME280;47021;51.340;12.432;2022-07-03T12:50:49;100073.31;;;36.08;21.88
61136;BME280;47021;51.340;12.432;2022-07-03T12:53:31;100098.75;;;35.99;21.23
61136;BME280;47021;51.340;12.432;2022-07-03T12:56:01;100100.56;;;35.66;22.23
61136;BME280;47021;51.340;12.432;2022-07-03T12:58:28;100093.88;;;35.59;21.77
61136;BME280;47021;51.340;12.432;2022-07-03T13:01:02;100098.88;;;35.04;22.18
61136;BME280;47021;51.340;12.432;2022-07-03T13:03:29;100094.38;;;33.83;23.43
61136;BME280;47021;51.340;12.432;2022-07-03T13:05:54;100085.63;;;34.40;23.17
61136;BME280;47021;51.340;12.432;2022-07-03T13:08:20;100091.56;;;35.23;22.62
61136;BME280;47021;51.340;12.432;2022-07-03T13:10:57;100079.47;;;35.34;21.94
61136;BME280;47021;51.340;12.432;2022-07-03T13:13:23;100077.75;;;35.43;21.93
61136;BME280;47021;51.340;12.432;2022-07-03T13:15:48;100078.34;;;35.17;22.15
61136;BME280;47021;51.340;12.432;2022-07-03T13:18:16;100079.63;;;35.24;21.94
61136;BME280;47021;51.340;12.432;2022-07-03T13:20:43;100085.97;;;35.15;21.59
61136;BME280;47021;51.340;12.432;2022-07-03T13:23:10;100071.41;;;36.09;21.39
61136;BME280;47021;51.340;12.432;2022-07-03T13:25:37;100080.72;;;35.66;21.37
61136;BME280;47021;51.340;12.432;2022-07-03T13:30:28;100076.31;;;35.46;21.63
61136;BME280;47021;51.340;12.432;2022-07-03T13:32:54;100069.34;;;36.01;21.26
61136;BME280;47021;51.340;12.432;2022-07-03T13:35:25;100067.13;;;35.23;22.13
61136;BME280;47021;51.340;12.432;2022-07-03T13:37:50;100063.25;;;35.29;21.68
61136;BME280;47021;51.340;12.432;2022-07-03T13:40:16;100058.31;;;36.11;21.00
61136;BME280;47021;51.340;12.432;2022-07-03T13:42:41;100056.28;;;36.03;21.57
61136;BME280;47021;51.340;12.432;2022-07-03T13:45:20;100059.75;;;35.00;22.51
61136;BME280;47021;51.340;12.432;2022-07-03T13:47:48;100068.66;;;34.58;23.34
61136;BME280;47021;51.340;12.432;2022-07-03T13:50:20;100059.03;;;35.18;22.23
61136;BME280;47021;51.340;12.432;2022-07-03T13:52:45;100059.75;;;35.00;23.42